sensor_id;sensor_type;location;lat;lon;timestamp;temperature;humidity
22379;DHT22;11357;49.990;7.370;2023-08-24T00:01:20;21.30;78.40
22379;DHT22;11357;49.990;7.370;2023-08-24T00:03:46;21.30;78.40
22379;DHT22;11357;49.990;7.370;2023-08-24T00:06:13;21.30;78.50
22379;DHT22;11357;49.990;7.370;2023-08-24T00:08:38;21.30;78.50
22379;DHT22;11357;49.990;7.370;2023-08-24T00:11:04;21.40;79.20
22379;DHT22;11357;49.990;7.370;2023-08-24T00:13:31;21.40;78.40
22379;DHT22;11357;49.990;7.370;2023-08-24T00:15:57;21.40;78.40
22379;DHT22;11357;49.990;7.370;2023-08-24T00:18:22;21.40;78.50
22379;DHT22;11357;49.990;7.370;2023-08-24T00:20:49;21.30;78.50
22379;DHT22;11357;49.990;7.370;2023-08-24T00:23:14;21.30;78.70
22379;DHT22;11357;49.990;7.370;2023-08-24T00:25:40;21.20;78.60
22379;DHT22;11357;49.990;7.370;2023-08-24T00:28:06;21.10;78.70
22379;DHT22;11357;49.990;7.370;2023-08-24T00:30:32;21.10;78.90
22379;DHT22;11357;49.990;7.370;2023-08-24T00:32:57;21.00;79.10
22379;DHT22;11357;49.990;7.370;2023-08-24T00:35:23;21.10;79.30
22379;DHT22;11357;49.990;7.370;2023-08-24T00:37:49;21.10;79.30
22379;DHT22;11357;49.990;7.370;2023-08-24T00:40:16;21.20;79.20
22379;DHT22;11357;49.990;7.370;2023-08-24T00:42:45;21.10;79.10
22379;DHT22;11357;49.990;7.370;2023-08-24T00:45:12;21.20;79.20
22379;DHT22;11357;49.990;7.370;2023-08-24T00:47:48;21.10;79.00
22379;DHT22;11357;49.990;7.370;2023-08-24T00:50:14;21.10;78.90
22379;DHT22;11357;49.990;7.370;2023-08-24T00:52:42;21.10;78.70
22379;DHT22;11357;49.990;7.370;2023-08-24T00:55:08;21.10;78.80
22379;DHT22;11357;49.990;7.370;2023-08-24T00:57:36;21.10;78.70
22379;DHT22;11357;49.990;7.370;2023-08-24T01:00:04;21.10;78.80
22379;DHT22;11357;49.990;7.370;2023-08-24T01:02:31;21.10;78.90
22379;DHT22;11357;49.990;7.370;2023-08-24T01:04:58;21.10;78.90
22379;DHT22;11357;49.990;7.370;2023-08-24T01:07:24;21.10;78.60
22379;DHT22;11357;49.990;7.370;2023-08-24T01:09:50;21.20;78.60
22379;DHT22;11357;49.990;7.370;2023-08-24T01:12:32;21.10;78.30
22379;DHT22;11357;49.990;7.370;2023-08-24T01:15:16;21.10;78.20
22379;DHT22;11357;49.990;7.370;2023-08-24T01:17:44;21.00;78.00
22379;DHT22;11357;49.990;7.370;2023-08-24T01:20:12;21.00;77.80
22379;DHT22;11357;49.990;7.370;2023-08-24T01:23:03;21.00;77.80
22379;DHT22;11357;49.990;7.370;2023-08-24T01:25:34;20.90;77.90
22379;DHT22;11357;49.990;7.370;2023-08-24T01:28:03;20.90;77.70
22379;DHT22;11357;49.990;7.370;2023-08-24T01:30:31;20.90;77.90
22379;DHT22;11357;49.990;7.370;2023-08-24T01:32:56;20.80;78.00
22379;DHT22;11357;49.990;7.370;2023-08-24T01:35:22;20.80;77.90
22379;DHT22;11357;49.990;7.370;2023-08-24T01:37:48;20.80;77.90
22379;DHT22;11357;49.990;7.370;2023-08-24T01:40:15;20.80;78.10
22379;DHT22;11357;49.990;7.370;2023-08-24T01:42:54;20.80;78.30
22379;DHT22;11357;49.990;7.370;2023-08-24T01:45:22;20.80;78.40
22379;DHT22;11357;49.990;7.370;2023-08-24T01:47:50;20.80;78.20
22379;DHT22;11357;49.990;7.370;2023-08-24T01:50:17;20.80;78.20
22379;DHT22;11357;49.990;7.370;2023-08-24T01:52:43;20.80;78.40
22379;DHT22;11357;49.990;7.370;2023-08-24T01:55:10;20.80;78.40
22379;DHT22;11357;49.990;7.370;2023-08-24T01:57:36;20.80;78.20
22379;DHT22;11357;49.990;7.370;2023-08-24T02:00:01;20.80;78.20
22379;DHT22;11357;49.990;7.370;2023-08-24T02:02:28;20.80;77.70
22379;DHT22;11357;49.990;7.370;2023-08-24T02:04:53;20.80;77.00
22379;DHT22;11357;49.990;7.370;2023-08-24T02:07:19;20.90;76.50
22379;DHT22;11357;49.990;7.370;2023-08-24T02:09:44;20.90;76.00
22379;DHT22;11357;49.990;7.370;2023-08-24T02:12:10;21.00;75.40
22379;DHT22;11357;49.990;7.370;2023-08-24T02:14:36;21.00;75.30
22379;DHT22;11357;49.990;7.370;2023-08-24T02:17:01;21.10;75.40
22379;DHT22;11357;49.990;7.370;2023-08-24T02:19:27;21.10;75.60
22379;DHT22;11357;49.990;7.370;2023-08-24T02:21:53;21.10;75.80
22379;DHT22;11357;49.990;7.370;2023-08-24T02:24:18;21.10;76.00
22379;DHT22;11357;49.990;7.370;2023-08-24T02:26:44;21.00;76.00
22379;DHT22;11357;49.990;7.370;2023-08-24T02:29:10;21.00;76.30
22379;DHT22;11357;49.990;7.370;2023-08-24T02:31:35;21.00;76.60
22379;DHT22;11357;49.990;7.370;2023-08-24T02:34:01;21.00;76.60
22379;DHT22;11357;49.990;7.370;2023-08-24T02:36:27;21.00;76.60
22379;DHT22;11357;49.990;7.370;2023-08-24T02:38:54;21.00;76.10
22379;DHT22;11357;49.990;7.370;2023-08-24T02:41:19;20.90;75.50
22379;DHT22;11357;49.990;7.370;2023-08-24T02:43:45;21.00;74.80
22379;DHT22;11357;49.990;7.370;2023-08-24T02:46:11;21.00;74.60
22379;DHT22;11357;49.990;7.370;2023-08-24T02:48:36;21.00;73.80
22379;DHT22;11357;49.990;7.370;2023-08-24T02:51:04;21.10;73.60
22379;DHT22;11357;49.990;7.370;2023-08-24T02:53:30;21.20;72.80
22379;DHT22;11357;49.990;7.370;2023-08-24T02:55:55;21.20;72.20
22379;DHT22;11357;49.990;7.370;2023-08-24T02:58:21;21.30;71.60
22379;DHT22;11357;49.990;7.370;2023-08-24T03:01:12;21.40;71.40
22379;DHT22;11357;49.990;7.370;2023-08-24T03:03:38;21.50;70.90
22379;DHT22;11357;49.990;7.370;2023-08-24T03:06:10;21.60;70.40
22379;DHT22;11357;49.990;7.370;2023-08-24T03:09:24;21.70;70.10
22379;DHT22;11357;49.990;7.370;2023-08-24T03:12:40;21.80;69.50
22379;DHT22;11357;49.990;7.370;2023-08-24T03:15:09;22.00;69.10
22379;DHT22;11357;49.990;7.370;2023-08-24T03:18:01;22.00;68.70
22379;DHT22;11357;49.990;7.370;2023-08-24T03:20:39;22.10;68.40
22379;DHT22;11357;49.990;7.370;2023-08-24T03:23:11;22.10;68.00
22379;DHT22;11357;49.990;7.370;2023-08-24T03:25:50;22.20;67.60
22379;DHT22;11357;49.990;7.370;2023-08-24T03:28:30;22.30;67.20
22379;DHT22;11357;49.990;7.370;2023-08-24T03:31:17;22.40;67.00
22379;DHT22;11357;49.990;7.370;2023-08-24T03:33:43;22.40;66.50
22379;DHT22;11357;49.990;7.370;2023-08-24T03:36:37;22.50;66.40
22379;DHT22;11357;49.990;7.370;2023-08-24T03:40:20;22.50;66.30
22379;DHT22;11357;49.990;7.370;2023-08-24T03:43:21;22.60;66.00
22379;DHT22;11357;49.990;7.370;2023-08-24T03:46:23;22.60;65.80
22379;DHT22;11357;49.990;7.370;2023-08-24T03:48:52;22.60;65.70
22379;DHT22;11357;49.990;7.370;2023-08-24T03:51:41;22.70;65.40
22379;DHT22;11357;49.990;7.370;2023-08-24T03:54:07;22.70;65.40
22379;DHT22;11357;49.990;7.370;2023-08-24T03:56:32;22.70;65.20
22379;DHT22;11357;49.990;7.370;2023-08-24T03:58:58;22.80;65.20
22379;DHT22;11357;49.990;7.370;2023-08-24T04:01:24;22.80;65.20
22379;DHT22;11357;49.990;7.370;2023-08-24T04:03:49;22.90;65.20
22379;DHT22;11357;49.990;7.370;2023-08-24T04:06:18;22.90;65.90
22379;DHT22;11357;49.990;7.370;2023-08-24T04:08:45;22.90;67.00
22379;DHT22;11357;49.990;7.370;2023-08-24T04:11:10;22.90;67.60
22379;DHT22;11357;49.990;7.370;2023-08-24T04:13:36;22.90;68.10
22379;DHT22;11357;49.990;7.370;2023-08-24T04:16:01;22.80;68.60
22379;DHT22;11357;49.990;7.370;2023-08-24T04:18:29;22.70;69.00
22379;DHT22;11357;49.990;7.370;2023-08-24T04:20:55;22.70;69.40
22379;DHT22;11357;49.990;7.370;2023-08-24T04:23:25;22.60;69.90
22379;DHT22;11357;49.990;7.370;2023-08-24T04:25:52;22.60;70.40
22379;DHT22;11357;49.990;7.370;2023-08-24T04:28:17;22.50;70.60
22379;DHT22;11357;49.990;7.370;2023-08-24T04:30:53;22.50;71.00
22379;DHT22;11357;49.990;7.370;2023-08-24T04:33:20;22.40;71.40
22379;DHT22;11357;49.990;7.370;2023-08-24T04:35:47;22.40;71.40
22379;DHT22;11357;49.990;7.370;2023-08-24T04:38:13;22.30;71.40
22379;DHT22;11357;49.990;7.370;2023-08-24T04:40:54;22.20;71.40
22379;DHT22;11357;49.990;7.370;2023-08-24T04:43:21;22.20;72.10
22379;DHT22;11357;49.990;7.370;2023-08-24T04:45:48;22.20;72.30
22379;DHT22;11357;49.990;7.370;2023-08-24T04:48:14;22.20;72.60
22379;DHT22;11357;49.990;7.370;2023-08-24T04:50:43;22.20;72.40
22379;DHT22;11357;49.990;7.370;2023-08-24T04:53:09;22.10;72.30
22379;DHT22;11357;49.990;7.370;2023-08-24T04:55:34;22.10;72.10
22379;DHT22;11357;49.990;7.370;2023-08-24T04:58:00;22.10;72.00
22379;DHT22;11357;49.990;7.370;2023-08-24T05:00:26;22.10;72.40
22379;DHT22;11357;49.990;7.370;2023-08-24T05:02:52;22.00;72.60
22379;DHT22;11357;49.990;7.370;2023-08-24T05:05:17;22.00;73.00
22379;DHT22;11357;49.990;7.370;2023-08-24T05:07:43;22.00;73.40
22379;DHT22;11357;49.990;7.370;2023-08-24T05:10:09;21.90;73.80
22379;DHT22;11357;49.990;7.370;2023-08-24T05:12:34;21.90;74.10
22379;DHT22;11357;49.990;7.370;2023-08-24T05:15:05;21.90;74.50
22379;DHT22;11357;49.990;7.370;2023-08-24T05:17:31;21.90;74.90
22379;DHT22;11357;49.990;7.370;2023-08-24T05:19:58;21.80;75.10
22379;DHT22;11357;49.990;7.370;2023-08-24T05:22:24;21.80;75.40
22379;DHT22;11357;49.990;7.370;2023-08-24T05:24:49;21.90;75.80
22379;DHT22;11357;49.990;7.370;2023-08-24T05:27:15;21.90;76.10
22379;DHT22;11357;49.990;7.370;2023-08-24T05:29:43;21.90;76.40
22379;DHT22;11357;49.990;7.370;2023-08-24T05:32:09;21.90;76.50
22379;DHT22;11357;49.990;7.370;2023-08-24T05:34:34;21.90;76.80
22379;DHT22;11357;49.990;7.370;2023-08-24T05:37:00;21.90;76.80
22379;DHT22;11357;49.990;7.370;2023-08-24T05:39:26;21.80;76.80
22379;DHT22;11357;49.990;7.370;2023-08-24T05:41:52;21.80;77.00
22379;DHT22;11357;49.990;7.370;2023-08-24T05:44:19;21.70;77.10
22379;DHT22;11357;49.990;7.370;2023-08-24T05:46:45;21.60;77.50
22379;DHT22;11357;49.990;7.370;2023-08-24T05:49:11;21.50;77.80
22379;DHT22;11357;49.990;7.370;2023-08-24T05:51:37;21.50;78.00
22379;DHT22;11357;49.990;7.370;2023-08-24T05:54:03;21.60;78.30
22379;DHT22;11357;49.990;7.370;2023-08-24T05:56:28;21.60;78.40
22379;DHT22;11357;49.990;7.370;2023-08-24T05:58:55;21.60;78.40
22379;DHT22;11357;49.990;7.370;2023-08-24T06:01:20;21.60;78.30
22379;DHT22;11357;49.990;7.370;2023-08-24T06:03:46;21.60;78.20
22379;DHT22;11357;49.990;7.370;2023-08-24T06:06:12;21.60;78.30
22379;DHT22;11357;49.990;7.370;2023-08-24T06:08:38;21.70;78.60
22379;DHT22;11357;49.990;7.370;2023-08-24T06:11:03;21.80;78.50
22379;DHT22;11357;49.990;7.370;2023-08-24T06:13:29;21.90;78.70
22379;DHT22;11357;49.990;7.370;2023-08-24T06:15:55;22.00;78.90
22379;DHT22;11357;49.990;7.370;2023-08-24T06:18:20;22.00;79.00
22379;DHT22;11357;49.990;7.370;2023-08-24T06:20:46;22.00;79.10
22379;DHT22;11357;49.990;7.370;2023-08-24T06:23:16;22.10;79.20
22379;DHT22;11357;49.990;7.370;2023-08-24T06:25:41;22.10;79.30
22379;DHT22;11357;49.990;7.370;2023-08-24T06:28:07;22.10;79.30
22379;DHT22;11357;49.990;7.370;2023-08-24T06:30:40;22.20;79.60
22379;DHT22;11357;49.990;7.370;2023-08-24T06:33:07;22.10;79.70
22379;DHT22;11357;49.990;7.370;2023-08-24T06:35:33;22.10;79.50
22379;DHT22;11357;49.990;7.370;2023-08-24T06:38:00;22.10;79.40
22379;DHT22;11357;49.990;7.370;2023-08-24T06:40:25;22.10;79.60
22379;DHT22;11357;49.990;7.370;2023-08-24T06:42:51;22.00;79.90
22379;DHT22;11357;49.990;7.370;2023-08-24T06:45:17;22.00;80.20
22379;DHT22;11357;49.990;7.370;2023-08-24T06:47:44;22.00;80.40
22379;DHT22;11357;49.990;7.370;2023-08-24T06:50:10;22.00;80.80
22379;DHT22;11357;49.990;7.370;2023-08-24T06:52:36;21.90;81.10
22379;DHT22;11357;49.990;7.370;2023-08-24T06:55:02;21.80;81.30
22379;DHT22;11357;49.990;7.370;2023-08-24T06:57:27;21.80;81.40
22379;DHT22;11357;49.990;7.370;2023-08-24T06:59:53;21.80;81.30
22379;DHT22;11357;49.990;7.370;2023-08-24T07:02:19;21.70;81.20
22379;DHT22;11357;49.990;7.370;2023-08-24T07:04:45;21.60;81.30
22379;DHT22;11357;49.990;7.370;2023-08-24T07:07:10;21.50;81.60
22379;DHT22;11357;49.990;7.370;2023-08-24T07:09:36;21.30;81.90
22379;DHT22;11357;49.990;7.370;2023-08-24T07:12:02;21.20;82.30
22379;DHT22;11357;49.990;7.370;2023-08-24T07:14:29;21.20;82.80
22379;DHT22;11357;49.990;7.370;2023-08-24T07:16:54;21.10;83.10
22379;DHT22;11357;49.990;7.370;2023-08-24T07:19:20;21.10;83.30
22379;DHT22;11357;49.990;7.370;2023-08-24T07:21:46;21.20;83.40
22379;DHT22;11357;49.990;7.370;2023-08-24T07:24:12;21.30;83.50
22379;DHT22;11357;49.990;7.370;2023-08-24T07:26:37;21.40;83.50
22379;DHT22;11357;49.990;7.370;2023-08-24T07:29:03;21.50;83.40
22379;DHT22;11357;49.990;7.370;2023-08-24T07:31:28;21.60;83.30
22379;DHT22;11357;49.990;7.370;2023-08-24T07:33:54;21.70;83.30
22379;DHT22;11357;49.990;7.370;2023-08-24T07:36:20;21.80;83.10
22379;DHT22;11357;49.990;7.370;2023-08-24T07:38:46;22.00;83.00
22379;DHT22;11357;49.990;7.370;2023-08-24T07:41:12;22.10;82.80
22379;DHT22;11357;49.990;7.370;2023-08-24T07:43:38;22.20;82.80
22379;DHT22;11357;49.990;7.370;2023-08-24T07:46:04;22.30;82.80
22379;DHT22;11357;49.990;7.370;2023-08-24T07:48:30;22.40;82.80
22379;DHT22;11357;49.990;7.370;2023-08-24T07:50:55;22.50;82.60
22379;DHT22;11357;49.990;7.370;2023-08-24T07:53:21;22.50;82.50
22379;DHT22;11357;49.990;7.370;2023-08-24T07:55:47;22.70;83.00
22379;DHT22;11357;49.990;7.370;2023-08-24T07:58:13;22.90;83.20
22379;DHT22;11357;49.990;7.370;2023-08-24T08:00:39;23.20;83.20
22379;DHT22;11357;49.990;7.370;2023-08-24T08:03:04;23.50;83.50
22379;DHT22;11357;49.990;7.370;2023-08-24T08:05:30;23.90;82.60
22379;DHT22;11357;49.990;7.370;2023-08-24T08:07:56;24.20;81.80
22379;DHT22;11357;49.990;7.370;2023-08-24T08:10:22;24.60;80.70
22379;DHT22;11357;49.990;7.370;2023-08-24T08:12:47;25.00;79.80
22379;DHT22;11357;49.990;7.370;2023-08-24T08:15:13;25.20;78.80
22379;DHT22;11357;49.990;7.370;2023-08-24T08:17:39;25.60;77.70
22379;DHT22;11357;49.990;7.370;2023-08-24T08:20:05;26.00;76.40
22379;DHT22;11357;49.990;7.370;2023-08-24T08:22:31;26.30;75.80
22379;DHT22;11357;49.990;7.370;2023-08-24T08:25:01;26.70;75.10
22379;DHT22;11357;49.990;7.370;2023-08-24T08:27:27;27.00;73.50
22379;DHT22;11357;49.990;7.370;2023-08-24T08:29:52;27.40;72.50
22379;DHT22;11357;49.990;7.370;2023-08-24T08:32:18;27.80;71.90
22379;DHT22;11357;49.990;7.370;2023-08-24T08:34:44;28.10;70.90
22379;DHT22;11357;49.990;7.370;2023-08-24T08:37:09;28.50;70.30
22379;DHT22;11357;49.990;7.370;2023-08-24T08:39:36;28.80;69.10
22379;DHT22;11357;49.990;7.370;2023-08-24T08:42:02;29.10;68.00
22379;DHT22;11357;49.990;7.370;2023-08-24T08:44:31;29.40;67.10
22379;DHT22;11357;49.990;7.370;2023-08-24T08:46:57;29.60;65.90
22379;DHT22;11357;49.990;7.370;2023-08-24T08:49:23;29.80;65.20
22379;DHT22;11357;49.990;7.370;2023-08-24T08:51:49;30.10;64.20
22379;DHT22;11357;49.990;7.370;2023-08-24T08:54:16;30.20;63.60
22379;DHT22;11357;49.990;7.370;2023-08-24T08:56:42;30.40;63.90
22379;DHT22;11357;49.990;7.370;2023-08-24T08:59:09;30.60;62.80
22379;DHT22;11357;49.990;7.370;2023-08-24T09:01:37;30.70;61.30
22379;DHT22;11357;49.990;7.370;2023-08-24T09:04:04;30.80;60.20
22379;DHT22;11357;49.990;7.370;2023-08-24T09:06:31;31.00;59.40
22379;DHT22;11357;49.990;7.370;2023-08-24T09:08:58;31.20;58.60
22379;DHT22;11357;49.990;7.370;2023-08-24T09:11:24;31.20;57.60
22379;DHT22;11357;49.990;7.370;2023-08-24T09:13:50;31.20;57.20
22379;DHT22;11357;49.990;7.370;2023-08-24T09:16:18;31.20;56.90
22379;DHT22;11357;49.990;7.370;2023-08-24T09:18:47;31.20;56.90
22379;DHT22;11357;49.990;7.370;2023-08-24T09:21:24;31.10;56.60
22379;DHT22;11357;49.990;7.370;2023-08-24T09:23:55;31.10;56.50
22379;DHT22;11357;49.990;7.370;2023-08-24T09:26:32;31.20;55.40
22379;DHT22;11357;49.990;7.370;2023-08-24T09:29:22;31.30;54.80
22379;DHT22;11357;49.990;7.370;2023-08-24T09:31:51;31.60;54.50
22379;DHT22;11357;49.990;7.370;2023-08-24T09:34:24;31.90;54.30
22379;DHT22;11357;49.990;7.370;2023-08-24T09:36:56;32.20;53.50
22379;DHT22;11357;49.990;7.370;2023-08-24T09:39:23;32.60;52.80
22379;DHT22;11357;49.990;7.370;2023-08-24T09:41:53;32.80;51.80
22379;DHT22;11357;49.990;7.370;2023-08-24T09:44:19;33.00;51.50
22379;DHT22;11357;49.990;7.370;2023-08-24T09:46:45;33.10;50.40
22379;DHT22;11357;49.990;7.370;2023-08-24T09:49:11;33.20;49.70
22379;DHT22;11357;49.990;7.370;2023-08-24T09:51:39;33.10;48.60
22379;DHT22;11357;49.990;7.370;2023-08-24T09:54:07;33.00;48.30
22379;DHT22;11357;49.990;7.370;2023-08-24T09:56:37;32.90;47.60
22379;DHT22;11357;49.990;7.370;2023-08-24T09:59:12;32.80;47.50
22379;DHT22;11357;49.990;7.370;2023-08-24T10:01:46;32.70;47.80
22379;DHT22;11357;49.990;7.370;2023-08-24T10:04:15;32.60;47.60
22379;DHT22;11357;49.990;7.370;2023-08-24T10:07:09;32.50;48.40
22379;DHT22;11357;49.990;7.370;2023-08-24T10:10:07;32.40;49.10
22379;DHT22;11357;49.990;7.370;2023-08-24T10:12:44;32.30;49.50
22379;DHT22;11357;49.990;7.370;2023-08-24T10:15:13;32.20;49.20
22379;DHT22;11357;49.990;7.370;2023-08-24T10:17:40;32.20;49.70
22379;DHT22;11357;49.990;7.370;2023-08-24T10:20:07;32.10;49.90
22379;DHT22;11357;49.990;7.370;2023-08-24T10:22:37;32.00;50.50
22379;DHT22;11357;49.990;7.370;2023-08-24T10:25:13;32.10;50.90
22379;DHT22;11357;49.990;7.370;2023-08-24T10:27:40;32.00;50.60
22379;DHT22;11357;49.990;7.370;2023-08-24T10:30:13;32.00;50.40
22379;DHT22;11357;49.990;7.370;2023-08-24T10:32:40;32.00;51.00
22379;DHT22;11357;49.990;7.370;2023-08-24T10:35:06;32.00;50.70
22379;DHT22;11357;49.990;7.370;2023-08-24T10:37:32;32.00;50.90
22379;DHT22;11357;49.990;7.370;2023-08-24T10:40:00;32.00;51.00
22379;DHT22;11357;49.990;7.370;2023-08-24T10:42:26;32.00;51.20
22379;DHT22;11357;49.990;7.370;2023-08-24T10:44:52;32.20;50.90
22379;DHT22;11357;49.990;7.370;2023-08-24T10:47:20;32.20;50.90
22379;DHT22;11357;49.990;7.370;2023-08-24T10:49:59;32.30;50.20
22379;DHT22;11357;49.990;7.370;2023-08-24T10:52:35;32.40;49.70
22379;DHT22;11357;49.990;7.370;2023-08-24T10:55:03;32.40;49.80
22379;DHT22;11357;49.990;7.370;2023-08-24T10:57:39;32.40;49.90
22379;DHT22;11357;49.990;7.370;2023-08-24T11:00:11;32.20;49.80
22379;DHT22;11357;49.990;7.370;2023-08-24T11:02:49;32.20;50.30
22379;DHT22;11357;49.990;7.370;2023-08-24T11:05:45;32.10;50.40
22379;DHT22;11357;49.990;7.370;2023-08-24T11:08:12;32.00;51.90
22379;DHT22;11357;49.990;7.370;2023-08-24T11:15:38;32.20;52.60
22379;DHT22;11357;49.990;7.370;2023-08-24T11:18:39;32.10;52.60
22379;DHT22;11357;49.990;7.370;2023-08-24T11:21:06;32.10;53.20
22379;DHT22;11357;49.990;7.370;2023-08-24T11:23:43;32.00;53.00
22379;DHT22;11357;49.990;7.370;2023-08-24T11:26:10;32.00;53.20
22379;DHT22;11357;49.990;7.370;2023-08-24T11:29:16;31.80;53.10
22379;DHT22;11357;49.990;7.370;2023-08-24T11:31:44;31.80;53.40
22379;DHT22;11357;49.990;7.370;2023-08-24T11:34:14;31.70;53.70
22379;DHT22;11357;49.990;7.370;2023-08-24T11:36:50;31.60;53.80
22379;DHT22;11357;49.990;7.370;2023-08-24T11:39:21;31.50;53.90
22379;DHT22;11357;49.990;7.370;2023-08-24T11:42:00;31.40;54.10
22379;DHT22;11357;49.990;7.370;2023-08-24T11:44:27;31.30;54.50
22379;DHT22;11357;49.990;7.370;2023-08-24T11:46:52;31.20;54.40
22379;DHT22;11357;49.990;7.370;2023-08-24T11:49:18;31.10;54.70
22379;DHT22;11357;49.990;7.370;2023-08-24T11:51:44;31.00;54.60
22379;DHT22;11357;49.990;7.370;2023-08-24T11:54:10;30.90;54.80
22379;DHT22;11357;49.990;7.370;2023-08-24T11:56:43;30.80;54.90
22379;DHT22;11357;49.990;7.370;2023-08-24T11:59:16;30.70;55.40
22379;DHT22;11357;49.990;7.370;2023-08-24T12:01:42;30.60;55.60
22379;DHT22;11357;49.990;7.370;2023-08-24T12:04:09;30.50;56.10
22379;DHT22;11357;49.990;7.370;2023-08-24T12:06:35;30.40;56.90
22379;DHT22;11357;49.990;7.370;2023-08-24T12:09:00;30.30;56.50
22379;DHT22;11357;49.990;7.370;2023-08-24T12:11:35;30.30;57.00
22379;DHT22;11357;49.990;7.370;2023-08-24T12:14:01;30.20;57.50
22379;DHT22;11357;49.990;7.370;2023-08-24T12:38:04;29.60;61.30
22379;DHT22;11357;49.990;7.370;2023-08-24T12:40:30;29.60;61.60
22379;DHT22;11357;49.990;7.370;2023-08-24T12:42:55;29.50;62.10
22379;DHT22;11357;49.990;7.370;2023-08-24T12:45:21;29.50;62.10
22379;DHT22;11357;49.990;7.370;2023-08-24T12:47:47;29.50;62.60
22379;DHT22;11357;49.990;7.370;2023-08-24T12:50:12;29.40;62.80
22379;DHT22;11357;49.990;7.370;2023-08-24T12:52:38;29.40;63.20
22379;DHT22;11357;49.990;7.370;2023-08-24T12:55:04;29.30;63.30
22379;DHT22;11357;49.990;7.370;2023-08-24T12:57:30;29.20;63.70
22379;DHT22;11357;49.990;7.370;2023-08-24T12:59:56;29.20;64.30
22379;DHT22;11357;49.990;7.370;2023-08-24T13:02:21;29.20;64.60
22379;DHT22;11357;49.990;7.370;2023-08-24T13:08:10;28.90;64.10
22379;DHT22;11357;49.990;7.370;2023-08-24T13:10:35;28.80;64.40
22379;DHT22;11357;49.990;7.370;2023-08-24T13:13:02;28.60;64.50
22379;DHT22;11357;49.990;7.370;2023-08-24T13:15:29;28.40;64.40
22379;DHT22;11357;49.990;7.370;2023-08-24T13:17:55;28.20;64.30
22379;DHT22;11357;49.990;7.370;2023-08-24T13:20:21;27.90;64.30
22379;DHT22;11357;49.990;7.370;2023-08-24T13:22:47;27.50;65.00
22379;DHT22;11357;49.990;7.370;2023-08-24T13:25:13;27.30;65.80
22379;DHT22;11357;49.990;7.370;2023-08-24T13:27:38;27.00;66.80
22379;DHT22;11357;49.990;7.370;2023-08-24T13:30:05;26.80;67.60
22379;DHT22;11357;49.990;7.370;2023-08-24T13:32:31;26.70;68.40
22379;DHT22;11357;49.990;7.370;2023-08-24T13:34:57;26.80;68.80
22379;DHT22;11357;49.990;7.370;2023-08-24T13:37:23;26.80;69.00
22379;DHT22;11357;49.990;7.370;2023-08-24T13:39:50;26.80;69.60
22379;DHT22;11357;49.990;7.370;2023-08-24T13:42:16;26.70;70.30
22379;DHT22;11357;49.990;7.370;2023-08-24T13:44:42;26.60;70.80
22379;DHT22;11357;49.990;7.370;2023-08-24T13:47:08;26.50;70.90
22379;DHT22;11357;49.990;7.370;2023-08-24T13:49:34;26.50;70.80
22379;DHT22;11357;49.990;7.370;2023-08-24T13:52:00;26.50;70.70
22379;DHT22;11357;49.990;7.370;2023-08-24T13:54:25;26.50;70.60
22379;DHT22;11357;49.990;7.370;2023-08-24T13:56:52;26.40;70.30
22379;DHT22;11357;49.990;7.370;2023-08-24T13:59:19;26.30;70.90
22379;DHT22;11357;49.990;7.370;2023-08-24T14:01:45;26.40;71.60
22379;DHT22;11357;49.990;7.370;2023-08-24T14:04:11;26.50;71.90
22379;DHT22;11357;49.990;7.370;2023-08-24T14:06:37;26.60;72.00
22379;DHT22;11357;49.990;7.370;2023-08-24T14:09:06;26.60;72.10
22379;DHT22;11357;49.990;7.370;2023-08-24T14:11:32;26.60;72.30
22379;DHT22;11357;49.990;7.370;2023-08-24T14:13:59;26.60;72.30
22379;DHT22;11357;49.990;7.370;2023-08-24T14:16:25;26.60;72.00
22379;DHT22;11357;49.990;7.370;2023-08-24T14:18:52;26.60;72.00
22379;DHT22;11357;49.990;7.370;2023-08-24T14:21:18;26.50;72.20
22379;DHT22;11357;49.990;7.370;2023-08-24T14:23:46;26.50;72.60
22379;DHT22;11357;49.990;7.370;2023-08-24T14:26:12;26.40;73.10
22379;DHT22;11357;49.990;7.370;2023-08-24T14:28:58;26.40;73.10
22379;DHT22;11357;49.990;7.370;2023-08-24T14:31:30;26.20;73.50
22379;DHT22;11357;49.990;7.370;2023-08-24T14:33:56;26.10;74.70
22379;DHT22;11357;49.990;7.370;2023-08-24T14:36:23;26.10;74.60
22379;DHT22;11357;49.990;7.370;2023-08-24T14:38:49;26.10;74.80
22379;DHT22;11357;49.990;7.370;2023-08-24T14:41:17;26.00;75.00
22379;DHT22;11357;49.990;7.370;2023-08-24T14:43:43;26.00;75.30
22379;DHT22;11357;49.990;7.370;2023-08-24T14:46:09;25.80;75.70
22379;DHT22;11357;49.990;7.370;2023-08-24T14:48:35;25.70;76.10
22379;DHT22;11357;49.990;7.370;2023-08-24T14:51:01;25.60;76.10
22379;DHT22;11357;49.990;7.370;2023-08-24T14:53:27;25.50;76.10
22379;DHT22;11357;49.990;7.370;2023-08-24T14:55:55;25.50;75.90
22379;DHT22;11357;49.990;7.370;2023-08-24T14:58:22;25.40;75.60
22379;DHT22;11357;49.990;7.370;2023-08-24T15:00:53;25.30;75.60
22379;DHT22;11357;49.990;7.370;2023-08-24T15:03:19;25.30;75.80
22379;DHT22;11357;49.990;7.370;2023-08-24T15:05:57;25.20;75.80
22379;DHT22;11357;49.990;7.370;2023-08-24T15:08:32;25.10;76.20
22379;DHT22;11357;49.990;7.370;2023-08-24T15:11:20;25.00;76.90
22379;DHT22;11357;49.990;7.370;2023-08-24T15:13:51;25.10;77.40
22379;DHT22;11357;49.990;7.370;2023-08-24T15:16:33;25.10;77.30
22379;DHT22;11357;49.990;7.370;2023-08-24T15:18:59;25.00;77.80
22379;DHT22;11357;49.990;7.370;2023-08-24T15:21:25;25.00;78.50
22379;DHT22;11357;49.990;7.370;2023-08-24T15:23:50;24.80;79.30
22379;DHT22;11357;49.990;7.370;2023-08-24T15:26:16;24.70;80.10
22379;DHT22;11357;49.990;7.370;2023-08-24T15:29:08;24.80;80.70
22379;DHT22;11357;49.990;7.370;2023-08-24T15:31:36;24.80;81.00
22379;DHT22;11357;49.990;7.370;2023-08-24T15:34:03;24.90;81.20
22379;DHT22;11357;49.990;7.370;2023-08-24T15:36:28;24.90;81.60
22379;DHT22;11357;49.990;7.370;2023-08-24T15:38:54;24.90;81.70
22379;DHT22;11357;49.990;7.370;2023-08-24T15:41:20;24.80;81.90
22379;DHT22;11357;49.990;7.370;2023-08-24T15:43:46;24.80;82.20
22379;DHT22;11357;49.990;7.370;2023-08-24T15:46:11;24.70;82.60
22379;DHT22;11357;49.990;7.370;2023-08-24T15:48:37;24.70;82.90
22379;DHT22;11357;49.990;7.370;2023-08-24T15:51:05;24.70;83.10
22379;DHT22;11357;49.990;7.370;2023-08-24T15:53:31;24.60;83.40
22379;DHT22;11357;49.990;7.370;2023-08-24T15:55:57;24.50;84.10
22379;DHT22;11357;49.990;7.370;2023-08-24T15:58:23;24.50;84.50
22379;DHT22;11357;49.990;7.370;2023-08-24T16:00:51;24.70;84.70
22379;DHT22;11357;49.990;7.370;2023-08-24T16:03:17;24.70;84.70
22379;DHT22;11357;49.990;7.370;2023-08-24T16:05:43;24.90;84.60
22379;DHT22;11357;49.990;7.370;2023-08-24T16:08:09;25.00;84.60
22379;DHT22;11357;49.990;7.370;2023-08-24T16:10:35;25.10;84.30